createdAt,value
2022-07-30T00:00:42.510Z,72.74
2022-07-30T00:03:13.856Z,72.62
2022-07-30T00:05:43.196Z,72.52
2022-07-30T00:08:13.883Z,72.47
2022-07-30T00:10:43.920Z,72.28
2022-07-30T00:13:15.295Z,72.25
2022-07-30T00:15:44.489Z,71.69
2022-07-30T00:18:16.028Z,72.27
2022-07-30T00:20:45.770Z,72.38
2022-07-30T00:23:15.661Z,72.62
2022-07-30T00:25:45.250Z,72.33
2022-07-30T00:28:14.401Z,72.50
2022-07-30T00:30:43.678Z,72.64
2022-07-30T00:33:15.039Z,72.45
2022-07-30T00:35:45.273Z,72.63
2022-07-30T00:38:15.390Z,72.34
2022-07-30T00:40:44.657Z,72.92
2022-07-30T00:43:18.158Z,73.43
2022-07-30T00:45:47.453Z,73.45
2022-07-30T00:48:18.993Z,73.73
2022-07-30T00:50:48.214Z,73.62
2022-07-30T00:53:17.751Z,74.04
2022-07-30T00:55:47.025Z,73.64
2022-07-30T00:58:16.317Z,74.24
2022-07-30T01:00:46.122Z,73.88
2022-07-30T01:03:15.307Z,74.08
2022-07-30T01:05:46.396Z,74.79
2022-07-30T01:08:16.394Z,74.82
2022-07-30T01:10:47.067Z,75.05
2022-07-30T01:13:16.354Z,74.35
2022-07-30T01:15:45.977Z,74.43
2022-07-30T01:18:17.729Z,74.37
2022-07-30T01:20:50.009Z,74.25
2022-07-30T01:23:27.182Z,74.62
2022-07-30T01:26:03.888Z,74.09
2022-07-30T01:28:38.518Z,74.72
2022-07-30T01:31:13.376Z,74.79
2022-07-30T01:33:46.333Z,74.83
2022-07-30T01:36:19.954Z,75.25
2022-07-30T01:38:53.096Z,75.54
2022-07-30T01:41:26.021Z,75.64
2022-07-30T01:43:56.628Z,75.64
2022-07-30T01:46:27.218Z,75.40
2022-07-30T01:48:59.281Z,75.29
2022-07-30T01:51:37.408Z,74.61
2022-07-30T01:54:10.126Z,74.71
2022-07-30T01:56:44.947Z,74.45
2022-07-30T01:59:16.746Z,74.00
2022-07-30T02:01:52.071Z,73.57
2022-07-30T02:04:21.681Z,73.96
2022-07-30T02:06:59.708Z,73.41
2022-07-30T02:09:36.140Z,73.46
2022-07-30T02:12:32.026Z,73.19
2022-07-30T02:15:16.946Z,72.79
2022-07-30T02:17:56.794Z,72.75
2022-07-30T02:20:31.288Z,73.13
2022-07-30T02:23:05.039Z,72.82
2022-07-30T02:25:38.825Z,73.07
2022-07-30T02:28:13.387Z,72.74
2022-07-30T02:30:49.009Z,72.63
2022-07-30T02:33:21.225Z,71.90
2022-07-30T02:35:57.221Z,71.67
2022-07-30T02:38:28.746Z,71.58
2022-07-30T02:41:01.127Z,71.66
2022-07-30T02:43:36.142Z,71.18
2022-07-30T02:46:07.943Z,71.57
2022-07-30T02:48:59.395Z,71.33
2022-07-30T02:51:29.486Z,71.26
2022-07-30T02:54:00.516Z,71.09
2022-07-30T02:56:31.327Z,70.91
2022-07-30T02:59:05.272Z,71.28
2022-07-30T03:01:35.956Z,70.79
2022-07-30T03:04:06.990Z,70.65
2022-07-30T03:06:38.215Z,70.81
2022-07-30T03:09:07.697Z,70.24
2022-07-30T03:11:39.257Z,69.66
2022-07-30T03:14:10.832Z,69.63
2022-07-30T03:16:43.838Z,69.47
2022-07-30T03:19:14.445Z,69.33
2022-07-30T03:21:44.535Z,69.25
2022-07-30T03:24:15.891Z,69.60
2022-07-30T03:26:46.573Z,68.99
2022-07-30T03:29:22.182Z,68.82
2022-07-30T03:31:52.568Z,69.07
2022-07-30T03:34:24.608Z,68.57
2022-07-30T03:36:54.655Z,68.61
2022-07-30T03:39:25.017Z,68.33
2022-07-30T03:41:55.683Z,67.69
2022-07-30T03:44:29.761Z,67.98
2022-07-30T03:47:03.629Z,67.12
2022-07-30T03:49:36.900Z,66.29
2022-07-30T03:52:09.078Z,65.53
2022-07-30T03:54:38.785Z,64.72
2022-07-30T03:57:28.868Z,64.29
2022-07-30T04:00:00.369Z,64.21
2022-07-30T04:02:29.574Z,63.64
2022-07-30T04:05:24.849Z,63.46
2022-07-30T04:07:55.551Z,63.65
2022-07-30T04:10:25.999Z,63.39
2022-07-30T04:13:01.139Z,62.87
2022-07-30T04:16:05.740Z,62.11
2022-07-30T04:18:36.742Z,62.35
2022-07-30T04:21:17.237Z,62.01
2022-07-30T04:24:03.250Z,62.09
2022-07-30T04:26:38.138Z,62.00
2022-07-30T04:29:09.588Z,61.94
2022-07-30T04:31:45.916Z,61.65
2022-07-30T04:34:48.563Z,61.05
2022-07-30T04:37:24.424Z,60.63
2022-07-30T04:39:56.285Z,59.58
2022-07-30T04:42:25.776Z,59.25
2022-07-30T04:45:12.389Z,58.32
2022-07-30T04:47:55.290Z,58.23
2022-07-30T04:50:44.746Z,58.24
2022-07-30T04:53:19.239Z,57.33
2022-07-30T04:55:56.229Z,56.88
2022-07-30T04:58:30.367Z,57.04
2022-07-30T05:01:01.541Z,57.50
2022-07-30T05:03:37.327Z,57.45
2022-07-30T05:06:08.480Z,57.37
2022-07-30T05:08:41.600Z,56.45
2022-07-30T05:11:14.736Z,55.83
2022-07-30T05:13:46.108Z,55.22
2022-07-30T05:16:17.773Z,55.26
2022-07-30T05:18:49.500Z,54.90
2022-07-30T05:21:18.802Z,54.57
2022-07-30T05:23:50.875Z,54.61
2022-07-30T05:26:32.495Z,54.72
2022-07-30T05:29:04.113Z,54.06
2022-07-30T05:31:50.643Z,53.22
2022-07-30T05:34:23.042Z,51.50
2022-07-30T05:36:54.236Z,52.04
2022-07-30T05:39:24.146Z,51.49
2022-07-30T05:42:12.092Z,51.24
2022-07-30T05:44:49.497Z,51.68
2022-07-30T05:47:20.745Z,52.45
2022-07-30T05:49:54.697Z,51.25
2022-07-30T05:52:25.077Z,52.04
2022-07-30T05:54:59.353Z,51.94
2022-07-30T05:57:52.734Z,52.10
2022-07-30T06:00:22.594Z,52.12
2022-07-30T06:02:55.502Z,52.28
2022-07-30T06:05:46.684Z,51.78
2022-07-30T06:08:16.058Z,52.10
2022-07-30T06:10:45.300Z,51.61
2022-07-30T06:13:14.986Z,51.41
2022-07-30T06:15:44.307Z,50.35
2022-07-30T06:18:13.589Z,50.21
2022-07-30T06:20:51.860Z,48.37
2022-07-30T06:23:40.022Z,47.72
2022-07-30T06:26:20.017Z,46.87
2022-07-30T06:28:49.538Z,46.56
2022-07-30T06:31:24.805Z,46.06
2022-07-30T06:33:54.677Z,46.51
2022-07-30T06:36:26.816Z,44.94
2022-07-30T06:39:04.891Z,45.34
2022-07-30T06:41:57.355Z,44.85
2022-07-30T06:44:31.163Z,43.47
2022-07-30T06:47:25.782Z,42.84
2022-07-30T06:49:56.637Z,42.88
2022-07-30T06:52:28.838Z,42.46
2022-07-30T06:54:58.779Z,42.65
2022-07-30T06:57:50.822Z,43.60
2022-07-30T07:00:49.162Z,44.00
2022-07-30T07:03:18.859Z,45.02
2022-07-30T07:05:49.858Z,45.31
2022-07-30T07:08:21.401Z,45.61
2022-07-30T07:10:58.428Z,45.17
2022-07-30T07:13:32.938Z,45.16
2022-07-30T07:16:04.814Z,45.45
2022-07-30T07:18:34.491Z,44.77
2022-07-30T07:21:07.936Z,43.61
2022-07-30T07:23:41.992Z,43.05
2022-07-30T07:26:32.893Z,43.49
2022-07-30T07:29:05.254Z,43.99
2022-07-30T07:32:06.390Z,45.02
2022-07-30T07:34:25.563Z,45.05
2022-07-30T07:36:55.389Z,45.23
2022-07-30T07:39:27.556Z,43.51
2022-07-30T07:41:57.958Z,43.97
2022-07-30T07:44:29.910Z,43.41
2022-07-30T07:46:59.920Z,42.77
2022-07-30T07:49:34.281Z,42.73
2022-07-30T07:52:04.221Z,41.74
2022-07-30T07:54:37.345Z,43.15
2022-07-30T07:57:10.561Z,43.91
2022-07-30T07:59:44.734Z,45.53
2022-07-30T08:02:22.016Z,46.37
2022-07-30T08:05:00.520Z,46.99
2022-07-30T08:07:38.893Z,46.82
2022-07-30T08:10:36.395Z,46.96
2022-07-30T08:13:51.458Z,47.10
2022-07-30T08:16:32.379Z,46.27
2022-07-30T08:19:11.722Z,46.35
2022-07-30T08:21:43.459Z,46.20
2022-07-30T08:24:12.922Z,45.70
2022-07-30T08:26:45.479Z,43.93
2022-07-30T08:29:17.240Z,43.62
2022-07-30T08:31:48.510Z,43.93
2022-07-30T08:34:19.885Z,43.83
2022-07-30T08:36:55.836Z,43.44
2022-07-30T08:39:25.376Z,43.67
2022-07-30T08:41:57.262Z,42.77
2022-07-30T08:44:28.452Z,42.18
2022-07-30T08:47:00.781Z,42.11
2022-07-30T08:49:53.260Z,41.28
2022-07-30T08:52:27.307Z,40.39
2022-07-30T08:55:03.965Z,40.67
2022-07-30T08:57:36.453Z,40.33
2022-07-30T09:00:09.115Z,40.42
2022-07-30T09:02:38.452Z,40.57
2022-07-30T09:05:11.193Z,40.35
2022-07-30T09:07:41.206Z,39.53
2022-07-30T09:10:16.983Z,39.10
2022-07-30T09:12:49.831Z,38.19
2022-07-30T09:15:20.831Z,37.89
2022-07-30T09:17:57.201Z,37.04
2022-07-30T09:20:30.813Z,38.47
2022-07-30T09:23:02.862Z,39.61
2022-07-30T09:26:07.558Z,41.24
2022-07-30T09:29:17.750Z,42.15
2022-07-30T09:32:07.464Z,42.08
2022-07-30T09:35:17.881Z,43.75
2022-07-30T09:38:23.493Z,43.78
2022-07-30T09:40:57.242Z,43.93
2022-07-30T09:43:52.042Z,43.79
2022-07-30T09:46:51.377Z,43.16
2022-07-30T09:49:29.356Z,42.79
2022-07-30T09:51:59.475Z,42.92
2022-07-30T09:54:51.053Z,42.35
2022-07-30T09:57:27.792Z,43.19
2022-07-30T10:00:19.846Z,42.84
2022-07-30T10:03:34.216Z,42.73
2022-07-30T10:06:38.001Z,41.92
2022-07-30T10:09:50.746Z,41.93
2022-07-30T10:12:23.988Z,42.19
2022-07-30T10:14:57.001Z,41.92
2022-07-30T10:17:26.711Z,41.84
2022-07-30T10:20:22.289Z,42.17
2022-07-30T10:23:10.278Z,42.89
2022-07-30T10:26:04.458Z,42.33
2022-07-30T10:28:43.629Z,42.60
2022-07-30T10:31:49.088Z,42.34
2022-07-30T10:34:03.956Z,42.61
2022-07-30T10:36:37.418Z,41.59
2022-07-30T10:39:09.384Z,41.35
2022-07-30T10:41:53.995Z,41.18
2022-07-30T10:44:47.418Z,41.20
2022-07-30T10:47:19.436Z,40.61
2022-07-30T10:50:07.184Z,40.19
2022-07-30T10:52:53.615Z,39.29
2022-07-30T10:55:36.931Z,38.74
2022-07-30T10:58:10.668Z,38.10
2022-07-30T11:01:00.903Z,37.99
2022-07-30T11:03:41.275Z,37.50
2022-07-30T11:06:28.888Z,36.89
2022-07-30T11:09:01.510Z,36.60
2022-07-30T11:12:01.335Z,37.13
2022-07-30T11:15:06.673Z,37.42
2022-07-30T11:18:15.185Z,37.91
2022-07-30T11:20:48.710Z,37.82
2022-07-30T11:23:40.531Z,38.45
2022-07-30T11:26:14.283Z,38.75
2022-07-30T11:28:46.220Z,37.44
2022-07-30T11:31:56.615Z,37.24
2022-07-30T11:34:30.969Z,36.88
2022-07-30T11:37:31.776Z,36.74
2022-07-30T11:40:12.411Z,36.27
2022-07-30T11:42:44.603Z,35.66
2022-07-30T11:45:34.086Z,35.96
2022-07-30T11:48:03.363Z,36.50
2022-07-30T11:50:34.706Z,36.75
2022-07-30T11:53:05.794Z,35.91
2022-07-30T11:55:38.409Z,34.69
2022-07-30T11:58:11.805Z,34.00
2022-07-30T12:00:47.320Z,33.50
2022-07-30T12:03:18.001Z,32.85
2022-07-30T12:05:51.131Z,33.32
2022-07-30T12:08:32.760Z,32.73
2022-07-30T12:11:06.694Z,33.09
2022-07-30T12:13:43.461Z,32.66
2022-07-30T12:16:18.083Z,32.78
2022-07-30T12:18:47.934Z,32.56
2022-07-30T12:21:17.536Z,32.03
2022-07-30T12:23:56.610Z,31.76
2022-07-30T12:26:28.402Z,32.29
2022-07-30T12:29:03.139Z,32.01
2022-07-30T12:31:38.498Z,31.87
2022-07-30T12:34:22.674Z,31.67
2022-07-30T12:36:52.005Z,30.88
2022-07-30T12:39:22.646Z,30.75
2022-07-30T12:41:53.642Z,30.86
2022-07-30T12:44:42.216Z,31.56
2022-07-30T12:47:25.837Z,31.68
2022-07-30T12:49:56.207Z,31.94
2022-07-30T12:58:02.854Z,33.02
2022-07-30T13:00:52.397Z,33.69
2022-07-30T13:03:24.714Z,33.06
2022-07-30T13:05:56.126Z,33.02
2022-07-30T13:08:50.105Z,33.36
2022-07-30T13:11:20.758Z,32.05
2022-07-30T13:13:52.837Z,32.86
2022-07-30T13:16:23.156Z,32.81
2022-07-30T13:18:52.923Z,32.75
2022-07-30T13:21:22.071Z,32.12
2022-07-30T13:23:54.123Z,31.60
2022-07-30T13:26:23.621Z,29.85
2022-07-30T13:28:58.662Z,30.53
2022-07-30T13:31:42.808Z,30.45
2022-07-30T13:34:13.215Z,30.08
2022-07-30T13:36:42.604Z,30.60
2022-07-30T13:39:12.877Z,30.30
2022-07-30T13:41:43.413Z,30.70
2022-07-30T13:44:14.614Z,30.81
2022-07-30T13:46:43.883Z,31.07
2022-07-30T13:49:13.127Z,30.70
2022-07-30T13:51:42.415Z,31.48
2022-07-30T13:54:13.863Z,31.72
2022-07-30T13:56:43.853Z,30.80
2022-07-30T13:59:15.054Z,31.25
2022-07-30T14:01:44.468Z,32.70
2022-07-30T14:04:13.739Z,33.28
2022-07-30T14:06:43.928Z,33.38
2022-07-30T14:09:13.119Z,33.52
2022-07-30T14:11:42.229Z,33.57
2022-07-30T14:14:11.588Z,33.45
2022-07-30T14:16:45.461Z,33.52
2022-07-30T14:19:23.140Z,33.27
2022-07-30T14:21:55.323Z,33.52
2022-07-30T14:24:24.779Z,33.17
2022-07-30T14:26:57.943Z,32.89
2022-07-30T14:29:27.963Z,32.44
2022-07-30T14:32:01.610Z,33.42
2022-07-30T14:34:30.954Z,33.18
2022-07-30T14:37:00.444Z,32.49
2022-07-30T14:39:29.909Z,32.05
2022-07-30T14:41:59.164Z,32.89
2022-07-30T14:44:28.425Z,32.31
2022-07-30T14:46:59.581Z,32.38
2022-07-30T14:49:29.093Z,31.95
2022-07-30T14:51:58.539Z,32.39
2022-07-30T14:54:27.842Z,32.17
2022-07-30T14:56:58.537Z,32.02
2022-07-30T14:59:30.187Z,32.01
2022-07-30T15:02:01.374Z,32.70
2022-07-30T15:04:30.837Z,32.55
2022-07-30T15:07:00.071Z,32.60
2022-07-30T15:09:30.286Z,33.16
2022-07-30T15:12:22.743Z,32.96
2022-07-30T15:14:53.771Z,33.26
2022-07-30T15:17:26.100Z,33.61
2022-07-30T15:19:55.867Z,34.11
2022-07-30T15:22:25.560Z,33.76
2022-07-30T15:24:54.914Z,34.16
2022-07-30T15:27:33.190Z,34.09
2022-07-30T15:30:03.506Z,34.96
2022-07-30T15:32:35.611Z,35.13
2022-07-30T15:35:04.933Z,35.11
2022-07-30T15:37:34.051Z,35.66
2022-07-30T15:40:03.468Z,35.67
2022-07-30T15:42:32.947Z,35.76
2022-07-30T15:45:17.221Z,36.59
2022-07-30T15:47:49.948Z,36.75
2022-07-30T15:50:19.541Z,36.84
2022-07-30T15:52:50.006Z,36.50
2022-07-30T15:55:19.354Z,37.21
2022-07-30T15:57:49.325Z,37.66
2022-07-30T16:00:18.969Z,37.33
2022-07-30T16:02:50.231Z,36.52
2022-07-30T16:05:19.567Z,35.87
2022-07-30T16:07:49.000Z,35.15
2022-07-30T16:10:18.376Z,34.59
2022-07-30T16:12:47.614Z,33.70
2022-07-30T16:15:16.942Z,33.54
2022-07-30T16:17:46.278Z,33.20
2022-07-30T16:20:17.454Z,31.72
2022-07-30T16:22:47.013Z,32.43
2022-07-30T16:25:16.284Z,32.32
2022-07-30T16:27:45.546Z,31.48
2022-07-30T16:30:15.181Z,31.37
2022-07-30T16:32:44.503Z,31.16
2022-07-30T16:35:13.702Z,31.77
2022-07-30T16:37:44.923Z,32.56
2022-07-30T16:40:15.170Z,33.17
2022-07-30T16:42:46.982Z,33.81
2022-07-30T16:45:17.410Z,33.75
2022-07-30T16:47:48.062Z,33.53
2022-07-30T16:50:17.415Z,34.27
2022-07-30T16:52:48.760Z,35.13
2022-07-30T16:55:17.736Z,35.72
2022-07-30T16:57:46.893Z,36.59
2022-07-30T17:00:17.832Z,35.96
2022-07-30T17:02:47.134Z,36.12
2022-07-30T17:05:16.259Z,36.51
2022-07-30T17:07:47.484Z,36.45
2022-07-30T17:10:16.766Z,36.42
2022-07-30T17:12:57.184Z,35.91
2022-07-30T17:15:32.471Z,36.39
2022-07-30T17:18:02.562Z,36.90
2022-07-30T17:20:33.728Z,36.83
2022-07-30T17:23:05.213Z,37.31
2022-07-30T17:25:34.554Z,37.63
2022-07-30T17:28:04.022Z,38.19
2022-07-30T17:30:33.460Z,37.89
2022-07-30T17:33:04.452Z,38.28
2022-07-30T17:35:36.207Z,38.52
2022-07-30T17:38:09.082Z,38.83
2022-07-30T17:40:38.277Z,39.60
2022-07-30T17:43:07.493Z,40.44
2022-07-30T17:45:38.048Z,40.44
2022-07-30T17:48:08.477Z,40.63
2022-07-30T17:50:38.771Z,40.78
2022-07-30T17:53:10.016Z,40.71
2022-07-30T17:55:39.480Z,41.00
2022-07-30T17:58:08.575Z,40.91
2022-07-30T18:00:37.993Z,41.24
2022-07-30T18:03:07.235Z,41.11
2022-07-30T18:05:36.702Z,41.54
2022-07-30T18:08:06.442Z,42.32
2022-07-30T18:10:37.565Z,42.64
2022-07-30T18:13:27.052Z,42.70
2022-07-30T18:15:57.766Z,42.66
2022-07-30T18:18:27.460Z,42.49
2022-07-30T18:20:56.745Z,43.12
2022-07-30T18:23:26.075Z,43.27
2022-07-30T18:26:06.378Z,43.75
2022-07-30T18:28:36.504Z,43.67
2022-07-30T18:31:06.594Z,43.86
2022-07-30T18:33:35.908Z,44.28
2022-07-30T18:36:13.483Z,43.97
2022-07-30T18:38:42.713Z,44.69
2022-07-30T18:41:13.883Z,44.72
2022-07-30T18:43:47.711Z,44.57
2022-07-30T18:46:17.989Z,45.22
2022-07-30T18:48:48.155Z,45.33
2022-07-30T18:51:18.267Z,45.87
2022-07-30T18:53:47.430Z,46.11
2022-07-30T18:56:18.498Z,45.98
2022-07-30T18:58:47.813Z,45.83
2022-07-30T19:01:17.909Z,46.05
2022-07-30T19:03:47.497Z,46.22
2022-07-30T19:06:16.758Z,46.71
2022-07-30T19:08:50.786Z,46.90
2022-07-30T19:11:22.413Z,47.01
2022-07-30T19:13:51.700Z,47.53
2022-07-30T19:16:20.831Z,47.72
2022-07-30T19:18:50.091Z,47.45
2022-07-30T19:21:19.339Z,47.77
2022-07-30T19:23:48.650Z,47.95
2022-07-30T19:26:18.624Z,48.19
2022-07-30T19:28:50.605Z,48.56
2022-07-30T19:31:19.951Z,48.79
2022-07-30T19:33:49.863Z,49.02
2022-07-30T19:36:20.620Z,49.71
2022-07-30T19:38:50.148Z,49.89
2022-07-30T19:41:19.699Z,50.19
2022-07-30T19:43:55.861Z,50.18
2022-07-30T19:46:28.297Z,49.54
2022-07-30T19:48:59.434Z,50.68
2022-07-30T19:52:09.473Z,51.01
2022-07-30T19:54:18.225Z,51.74
2022-07-30T19:56:47.360Z,51.83
2022-07-30T19:59:19.139Z,51.25
2022-07-30T20:02:08.518Z,51.98
2022-07-30T20:04:39.382Z,52.70
2022-07-30T20:07:12.954Z,53.53
2022-07-30T20:09:44.491Z,53.88
2022-07-30T20:12:14.184Z,54.40
2022-07-30T20:14:45.405Z,55.02
2022-07-30T20:17:15.358Z,54.67
2022-07-30T20:19:48.106Z,55.48
2022-07-30T20:22:18.555Z,56.41
2022-07-30T20:24:49.238Z,56.44
2022-07-30T20:27:37.345Z,56.53
2022-07-30T20:30:12.266Z,57.00
2022-07-30T20:32:46.401Z,56.96
2022-07-30T20:35:16.860Z,57.30
2022-07-30T20:37:54.713Z,57.02
2022-07-30T20:40:26.982Z,56.11
2022-07-30T20:42:57.111Z,55.52
2022-07-30T20:45:40.394Z,55.08
2022-07-30T20:48:17.086Z,55.18
2022-07-30T20:50:49.197Z,55.51
2022-07-30T20:53:19.421Z,55.44
2022-07-30T20:55:50.015Z,56.34
2022-07-30T20:58:20.832Z,56.61
2022-07-30T21:00:54.502Z,56.72
2022-07-30T21:03:24.172Z,55.63
2022-07-30T21:05:55.619Z,55.58
2022-07-30T21:08:25.300Z,55.01
2022-07-30T21:10:55.568Z,54.21
2022-07-30T21:13:26.054Z,54.20
2022-07-30T21:16:02.811Z,53.98
2022-07-30T21:18:33.526Z,53.56
2022-07-30T21:21:05.695Z,53.54
2022-07-30T21:23:35.682Z,53.71
2022-07-30T21:26:13.401Z,53.89
2022-07-30T21:28:43.274Z,54.46
2022-07-30T21:31:14.465Z,55.23
2022-07-30T21:33:43.857Z,56.02
2022-07-30T21:36:15.135Z,57.77
2022-07-30T21:38:44.985Z,57.55
2022-07-30T21:41:15.104Z,57.74
2022-07-30T21:43:45.554Z,57.49
2022-07-30T21:46:24.928Z,58.00
2022-07-30T21:48:59.290Z,57.17
2022-07-30T21:51:28.774Z,56.89
2022-07-30T21:53:59.666Z,56.63
2022-07-30T21:56:28.821Z,56.07
2022-07-30T21:58:58.181Z,56.14
2022-07-30T22:01:29.271Z,56.32
2022-07-30T22:04:07.928Z,56.15
2022-07-30T22:06:40.036Z,56.39
2022-07-30T22:09:19.509Z,55.87
2022-07-30T22:12:01.473Z,57.71
2022-07-30T22:14:31.640Z,57.31
2022-07-30T22:17:04.404Z,59.45
2022-07-30T22:19:33.997Z,59.98
2022-07-30T22:22:26.054Z,61.23
2022-07-30T22:24:52.451Z,61.76
2022-07-30T22:27:22.271Z,62.11
2022-07-30T22:29:51.464Z,62.24
2022-07-30T22:32:27.330Z,63.29
2022-07-30T22:37:46.633Z,62.26
2022-07-30T22:40:17.203Z,62.88
2022-07-30T22:42:50.106Z,62.86
2022-07-30T22:45:34.063Z,64.43
2022-07-30T22:48:11.409Z,63.70
2022-07-30T22:50:41.043Z,62.94
2022-07-30T22:53:23.357Z,63.35
2022-07-30T22:55:59.738Z,62.90
2022-07-30T22:58:29.781Z,62.75
2022-07-30T23:00:59.178Z,63.39
2022-07-30T23:03:30.437Z,65.55
2022-07-30T23:06:00.078Z,65.92
2022-07-30T23:08:30.956Z,66.22
2022-07-30T23:11:01.140Z,66.38
2022-07-30T23:12:28.913Z,61.36
2022-07-30T23:13:31.866Z,64.72
2022-07-30T23:16:01.263Z,63.44
2022-07-30T23:18:32.426Z,62.25
2022-07-30T23:21:02.280Z,61.36
2022-07-30T23:23:35.174Z,61.26
2022-07-30T23:26:04.864Z,60.53
2022-07-30T23:28:34.177Z,60.43
2022-07-30T23:31:03.560Z,59.87
2022-07-30T23:33:34.828Z,59.47
2022-07-30T23:36:07.049Z,59.57
2022-07-30T23:38:36.562Z,59.50
2022-07-30T23:41:06.387Z,59.58
2022-07-30T23:43:36.004Z,59.32
2022-07-30T23:46:06.206Z,59.60
2022-07-30T23:48:42.474Z,58.88
2022-07-30T23:51:11.666Z,58.87
2022-07-30T23:53:40.820Z,58.36
2022-07-30T23:56:15.935Z,58.71
2022-07-30T23:58:45.547Z,58.80
